createdAt,value
2023-10-15T07:05:22.368Z,11.84
2023-10-15T07:05:38.182Z,11.90
2023-10-15T07:05:55.743Z,11.87
2023-10-15T07:06:10.339Z,11.88
2023-10-15T07:06:27.225Z,11.82
2023-10-15T07:06:43.425Z,11.84
2023-10-15T07:06:56.553Z,11.83
2023-10-15T07:07:09.345Z,11.90
2023-10-15T07:07:21.860Z,11.89
2023-10-15T07:07:34.303Z,11.89
2023-10-15T07:07:47.908Z,11.91
2023-10-15T07:08:00.696Z,11.90
2023-10-15T07:08:16.523Z,11.92
2023-10-15T07:08:31.796Z,11.92
2023-10-15T07:08:44.894Z,11.85
2023-10-15T07:08:58.225Z,11.81
2023-10-15T07:09:13.033Z,11.92
2023-10-15T07:09:30.040Z,11.80
2023-10-15T07:09:46.110Z,11.87
2023-10-15T07:10:02.694Z,11.87
2023-10-15T07:10:15.934Z,11.95
2023-10-15T07:10:31.064Z,11.95
2023-10-15T07:10:44.005Z,11.90
2023-10-15T07:11:00.417Z,11.93
2023-10-15T07:11:15.742Z,11.95
2023-10-15T07:11:28.032Z,11.92
2023-10-15T07:11:41.906Z,11.98
2023-10-15T07:11:57.219Z,11.92
2023-10-15T07:12:16.588Z,11.96
2023-10-15T07:12:29.573Z,11.90
2023-10-15T07:12:41.905Z,11.99
2023-10-15T07:12:54.848Z,12.02
2023-10-15T07:13:08.380Z,11.97
2023-10-15T07:13:22.096Z,11.92
2023-10-15T07:13:48.001Z,11.96
2023-10-15T07:14:05.269Z,11.89
2023-10-15T07:14:18.179Z,12.01
2023-10-15T07:14:31.568Z,11.97
2023-10-15T07:14:45.120Z,11.98
2023-10-15T07:14:57.885Z,12.01
2023-10-15T07:15:11.878Z,11.95
2023-10-15T07:15:26.947Z,12.01
2023-10-15T07:15:43.164Z,11.93
2023-10-15T07:15:58.171Z,11.90
2023-10-15T07:16:15.494Z,11.99
2023-10-15T07:16:28.878Z,12.01
2023-10-15T07:16:43.566Z,11.92
2023-10-15T07:16:59.519Z,11.98
2023-10-15T07:17:17.912Z,12.01
2023-10-15T07:17:30.975Z,12.01
2023-10-15T07:17:51.192Z,12.00
2023-10-15T07:18:15.195Z,12.01
2023-10-15T07:22:05.436Z,11.99
2023-10-15T07:22:18.828Z,12.07
2023-10-15T07:22:31.288Z,11.98
2023-10-15T07:22:46.831Z,12.01
2023-10-15T07:23:01.818Z,12.10
2023-10-15T07:23:14.409Z,12.03
2023-10-15T07:23:26.847Z,12.01
2023-10-15T07:23:42.214Z,12.08
2023-10-15T07:23:55.309Z,11.98
2023-10-15T07:24:09.276Z,12.06
2023-10-15T07:24:21.836Z,12.10
2023-10-15T07:24:34.288Z,12.04
2023-10-15T07:24:49.188Z,12.09
2023-10-15T07:25:01.259Z,12.05
2023-10-15T07:25:17.172Z,12.02
2023-10-15T07:25:30.114Z,12.06
2023-10-15T07:25:45.367Z,12.12
2023-10-15T07:26:10.227Z,12.11
2023-10-15T07:26:31.766Z,12.09
2023-10-15T07:26:44.011Z,12.08
2023-10-15T07:26:56.355Z,12.10
2023-10-15T07:27:08.875Z,12.02
2023-10-15T07:27:22.041Z,12.13
2023-10-15T07:27:34.941Z,12.14
2023-10-15T07:27:49.104Z,12.10
2023-10-15T07:28:02.157Z,12.14
2023-10-15T07:28:17.409Z,12.16
2023-10-15T07:28:30.312Z,12.16
2023-10-15T07:28:46.079Z,12.11
2023-10-15T07:28:59.608Z,12.20
2023-10-15T07:29:11.972Z,12.20
2023-10-15T07:29:25.213Z,12.20
2023-10-15T07:29:38.043Z,12.15
2023-10-15T07:29:50.657Z,12.23
2023-10-15T07:30:04.233Z,12.25
2023-10-15T07:30:22.209Z,12.25
2023-10-15T07:30:36.266Z,12.26
2023-10-15T07:30:51.110Z,12.27
2023-10-15T07:31:06.294Z,12.21
2023-10-15T07:31:23.255Z,12.22
2023-10-15T07:31:37.522Z,12.21
2023-10-15T07:31:50.859Z,12.25
2023-10-15T07:32:06.467Z,12.20
2023-10-15T07:32:19.807Z,12.22
2023-10-15T07:32:35.662Z,12.20
2023-10-15T07:32:53.131Z,12.22
2023-10-15T07:33:08.650Z,12.28
2023-10-15T07:33:30.337Z,12.27
2023-10-15T07:33:47.514Z,12.29
2023-10-15T07:34:05.305Z,12.20
2023-10-15T07:34:20.069Z,12.27
2023-10-15T07:34:33.688Z,12.28
2023-10-15T07:34:49.333Z,12.29
2023-10-15T07:35:02.690Z,12.17
2023-10-15T07:35:16.586Z,12.30
2023-10-15T07:35:30.191Z,12.28
2023-10-15T07:35:45.142Z,12.32
2023-10-15T07:35:58.167Z,12.23
2023-10-15T07:36:10.599Z,12.28
2023-10-15T07:36:25.921Z,12.21
2023-10-15T07:36:38.810Z,12.27
2023-10-15T07:36:51.213Z,12.26
2023-10-15T07:37:04.919Z,12.27
2023-10-15T07:37:17.075Z,12.23
2023-10-15T07:37:32.795Z,12.27
2023-10-15T07:38:17.931Z,12.28
2023-10-15T07:38:31.920Z,12.26
2023-10-15T07:38:44.719Z,12.17
2023-10-15T07:38:56.900Z,12.25
2023-10-15T07:39:10.935Z,12.26
2023-10-15T07:39:23.941Z,12.17
2023-10-15T07:39:35.986Z,12.25
2023-10-15T07:39:48.036Z,12.28
2023-10-15T07:40:00.050Z,12.24
2023-10-15T07:40:14.718Z,12.28
2023-10-15T07:40:29.238Z,12.25
2023-10-15T07:40:42.457Z,12.20
2023-10-15T07:40:57.132Z,12.18
2023-10-15T07:41:10.257Z,12.12
2023-10-15T07:41:22.797Z,12.14
2023-10-15T07:41:35.214Z,12.20
2023-10-15T07:41:47.238Z,12.21
2023-10-15T07:41:59.263Z,12.22
2023-10-15T07:42:11.158Z,12.20
2023-10-15T07:42:23.444Z,12.09
2023-10-15T07:42:35.428Z,12.05
2023-10-15T07:42:49.205Z,12.10
2023-10-15T07:43:01.527Z,12.14
2023-10-15T07:43:14.416Z,12.15
2023-10-15T07:43:34.705Z,12.02
2023-10-15T07:43:47.117Z,12.15
2023-10-15T07:43:59.281Z,12.14
2023-10-15T07:44:12.649Z,12.16
2023-10-15T07:44:25.107Z,12.15
2023-10-15T07:44:37.430Z,12.19
2023-10-15T07:44:49.980Z,12.16
2023-10-15T07:45:02.133Z,12.19
2023-10-15T07:45:14.695Z,12.17
2023-10-15T07:45:28.837Z,12.12
2023-10-15T07:45:41.169Z,12.12
2023-10-15T07:45:53.361Z,12.15
2023-10-15T07:46:05.531Z,12.15
2023-10-15T07:46:17.913Z,12.12
2023-10-15T07:46:31.068Z,12.14
2023-10-15T07:46:43.825Z,12.07
2023-10-15T07:46:56.491Z,12.08
2023-10-15T07:47:09.988Z,12.12
2023-10-15T07:47:23.396Z,12.11
2023-10-15T07:47:37.314Z,12.12
2023-10-15T07:47:58.075Z,12.13
2023-10-15T07:48:10.942Z,12.12
2023-10-15T07:48:24.983Z,12.11
2023-10-15T07:48:42.848Z,12.00
2023-10-15T07:49:10.550Z,12.09
2023-10-15T07:49:24.776Z,12.02
2023-10-15T07:49:37.739Z,12.09
2023-10-15T07:49:54.293Z,11.99
2023-10-15T07:50:12.357Z,12.01
2023-10-15T07:50:25.567Z,12.01
2023-10-15T07:50:38.942Z,12.09
2023-10-15T07:50:53.490Z,12.05
2023-10-15T07:51:06.275Z,12.05
2023-10-15T07:51:23.040Z,12.07
2023-10-15T07:51:36.483Z,12.08
2023-10-15T07:51:51.360Z,12.05
2023-10-15T07:52:08.425Z,12.00
2023-10-15T07:52:20.995Z,12.01
2023-10-15T07:52:33.933Z,12.05
2023-10-15T07:52:47.445Z,12.06
2023-10-15T07:53:00.960Z,11.96
2023-10-15T07:53:14.280Z,12.04
2023-10-15T07:53:27.314Z,12.00
2023-10-15T07:53:40.599Z,12.03
2023-10-15T07:53:55.575Z,12.04
2023-10-15T07:54:09.291Z,11.97
2023-10-15T07:54:25.903Z,12.05
2023-10-15T07:54:39.049Z,12.05
2023-10-15T07:54:52.698Z,11.99
2023-10-15T07:55:06.736Z,12.07
2023-10-15T07:55:26.667Z,12.00
2023-10-15T07:55:44.093Z,11.99
2023-10-15T07:56:09.991Z,12.06
2023-10-15T07:56:27.206Z,12.01
2023-10-15T07:56:51.177Z,12.00
2023-10-15T07:57:29.343Z,12.10
2023-10-15T07:57:41.220Z,12.07
2023-10-15T07:57:53.613Z,12.09
2023-10-15T07:58:06.298Z,12.10
2023-10-15T07:58:20.691Z,12.06
2023-10-15T07:58:35.946Z,12.11
2023-10-15T07:58:51.770Z,12.10
2023-10-15T07:59:07.966Z,12.10
2023-10-15T07:59:22.184Z,12.11
2023-10-15T07:59:36.014Z,12.10
2023-10-15T07:59:53.217Z,12.04
2023-10-15T08:00:08.083Z,12.06
2023-10-15T08:00:24.867Z,12.07
2023-10-15T08:00:37.137Z,12.10
2023-10-15T08:01:05.278Z,12.11
2023-10-15T08:01:23.348Z,12.10
2023-10-15T08:01:39.148Z,12.10
2023-10-15T08:01:54.303Z,12.13
2023-10-15T08:02:11.926Z,12.13
2023-10-15T08:02:56.799Z,12.13
2023-10-15T08:03:10.270Z,12.16
2023-10-15T08:03:23.708Z,12.17
2023-10-15T08:03:44.793Z,12.16
2023-10-15T08:04:18.477Z,12.12
2023-10-15T08:04:37.192Z,12.19
2023-10-15T08:05:41.843Z,12.14
2023-10-15T08:06:01.376Z,12.21
2023-10-15T08:06:16.775Z,12.14
2023-10-15T08:07:04.522Z,12.17
2023-10-15T08:07:26.189Z,12.22
2023-10-15T08:07:40.046Z,12.22
2023-10-15T08:07:55.717Z,12.20
2023-10-15T08:08:10.876Z,12.22
2023-10-15T08:08:23.731Z,12.24
2023-10-15T08:09:03.901Z,12.16
2023-10-15T08:09:16.924Z,12.23
2023-10-15T08:10:58.254Z,12.26
2023-10-15T08:11:11.733Z,12.26
2023-10-15T08:11:25.730Z,12.27
2023-10-15T08:11:40.157Z,12.27
2023-10-15T08:11:53.232Z,12.29
2023-10-15T08:12:06.479Z,12.20
2023-10-15T08:12:29.096Z,12.33
2023-10-15T08:12:44.792Z,12.27
2023-10-15T08:12:58.618Z,12.30
2023-10-15T08:13:11.060Z,12.29
2023-10-15T08:13:25.371Z,12.29
2023-10-15T08:13:40.884Z,12.28
2023-10-15T08:13:53.854Z,12.29
2023-10-15T08:14:14.156Z,12.25
2023-10-15T08:14:27.412Z,12.24
2023-10-15T08:14:40.752Z,12.22
2023-10-15T08:14:54.719Z,12.27
2023-10-15T08:15:10.050Z,12.29
2023-10-15T08:15:22.815Z,12.21
2023-10-15T08:15:35.885Z,12.29
2023-10-15T08:15:49.516Z,12.28
2023-10-15T08:16:02.568Z,12.19
2023-10-15T08:16:15.203Z,12.28
2023-10-15T08:16:28.210Z,12.28
2023-10-15T08:16:41.597Z,12.15
2023-10-15T08:16:54.125Z,12.27
2023-10-15T08:17:07.236Z,12.30
2023-10-15T08:17:21.032Z,12.29
2023-10-15T08:17:34.211Z,12.24
2023-10-15T08:17:48.158Z,12.29
2023-10-15T08:18:04.501Z,12.26
2023-10-15T08:18:18.201Z,12.27
2023-10-15T08:18:44.830Z,12.31
2023-10-15T08:19:00.430Z,12.26
2023-10-15T08:19:14.006Z,12.21
2023-10-15T08:19:26.868Z,12.23
2023-10-15T08:19:40.642Z,12.31
2023-10-15T08:19:54.895Z,12.19
2023-10-15T08:20:09.828Z,12.32
2023-10-15T08:20:23.035Z,12.26
2023-10-15T08:20:37.631Z,12.32
2023-10-15T08:20:52.673Z,12.33
2023-10-15T08:21:06.523Z,12.27
2023-10-15T08:21:20.307Z,12.25
2023-10-15T08:21:35.066Z,12.32
2023-10-15T08:21:51.355Z,12.34
2023-10-15T08:22:12.871Z,12.36
2023-10-15T08:22:37.466Z,12.35
2023-10-15T08:22:53.324Z,12.28
2023-10-15T08:23:15.183Z,12.38
2023-10-15T08:23:56.915Z,12.25
2023-10-15T08:24:12.468Z,12.34
2023-10-15T08:24:25.420Z,12.35
2023-10-15T08:24:38.155Z,12.35
2023-10-15T08:24:50.951Z,12.35
2023-10-15T08:25:03.607Z,12.33
2023-10-15T08:25:16.740Z,12.33
2023-10-15T08:25:31.607Z,12.32
2023-10-15T08:25:44.368Z,12.25
2023-10-15T08:25:56.556Z,12.37
2023-10-15T08:26:09.256Z,12.30
2023-10-15T08:26:21.540Z,12.35
2023-10-15T08:26:34.598Z,12.35
2023-10-15T08:26:47.084Z,12.32
2023-10-15T08:27:01.015Z,12.34
2023-10-15T08:27:13.951Z,12.38
2023-10-15T08:27:27.243Z,12.36
2023-10-15T08:27:39.782Z,12.42
2023-10-15T08:27:52.169Z,12.42
2023-10-15T08:28:05.664Z,12.37
2023-10-15T08:28:20.241Z,12.36
2023-10-15T08:28:38.059Z,12.44
2023-10-15T08:28:50.576Z,12.43
2023-10-15T08:29:03.112Z,12.44
2023-10-15T08:29:18.502Z,12.45
2023-10-15T08:29:33.688Z,12.46
2023-10-15T08:29:55.517Z,12.49
2023-10-15T08:30:10.763Z,12.45
2023-10-15T08:30:23.426Z,12.44
2023-10-15T08:30:38.028Z,12.39
2023-10-15T08:30:52.783Z,12.44
2023-10-15T08:31:05.668Z,12.46
2023-10-15T08:31:19.931Z,12.49
2023-10-15T08:32:03.647Z,12.54
2023-10-15T08:32:15.790Z,12.56
2023-10-15T08:32:28.456Z,12.50
2023-10-15T08:32:41.366Z,12.55
2023-10-15T08:32:53.489Z,12.56
2023-10-15T08:33:06.659Z,12.56
2023-10-15T08:33:18.841Z,12.56
2023-10-15T08:33:31.043Z,12.58
2023-10-15T08:33:46.763Z,12.58
2023-10-15T08:34:01.275Z,12.55
2023-10-15T08:34:13.284Z,12.55
2023-10-15T08:34:25.730Z,12.55
2023-10-15T08:34:38.141Z,12.50
2023-10-15T08:34:50.878Z,12.52
2023-10-15T08:35:03.807Z,12.59
2023-10-15T08:35:17.339Z,12.59
2023-10-15T08:35:29.645Z,12.53
2023-10-15T08:35:41.872Z,12.51
2023-10-15T08:35:54.367Z,12.43
2023-10-15T08:36:07.213Z,12.52
2023-10-15T08:36:19.491Z,12.53
2023-10-15T08:36:32.094Z,12.58
2023-10-15T08:36:44.219Z,12.55
2023-10-15T08:36:56.303Z,12.50
2023-10-15T08:37:08.636Z,12.54
2023-10-15T08:37:20.987Z,12.56
2023-10-15T08:37:35.019Z,12.53
2023-10-15T08:37:47.817Z,12.48
2023-10-15T08:38:00.081Z,12.54
2023-10-15T08:38:12.290Z,12.54
2023-10-15T08:38:24.619Z,12.55
2023-10-15T08:38:36.917Z,12.53
2023-10-15T08:38:49.567Z,12.50
2023-10-15T08:39:12.701Z,12.52
2023-10-15T08:39:37.791Z,12.53
2023-10-15T08:39:52.950Z,12.50
2023-10-15T08:40:10.059Z,12.47
2023-10-15T08:40:28.440Z,12.51
2023-10-15T08:40:41.732Z,12.49
2023-10-15T08:40:57.991Z,12.52
2023-10-15T08:41:13.647Z,12.51
2023-10-15T08:41:29.368Z,12.47
2023-10-15T08:41:44.935Z,12.51
2023-10-15T08:41:59.966Z,12.46
2023-10-15T08:42:15.370Z,12.45
2023-10-15T08:42:32.342Z,12.52
2023-10-15T08:42:59.624Z,12.50
2023-10-15T08:43:20.671Z,12.49
2023-10-15T08:43:33.468Z,12.48
2023-10-15T08:43:47.304Z,12.43
2023-10-15T08:44:00.386Z,12.39
2023-10-15T08:44:16.397Z,12.45
2023-10-15T08:44:30.190Z,12.37
2023-10-15T08:44:44.837Z,12.39
2023-10-15T08:45:00.363Z,12.34
2023-10-15T08:45:13.919Z,12.33
2023-10-15T08:45:27.445Z,12.44
2023-10-15T08:45:40.754Z,12.43
2023-10-15T08:45:55.046Z,12.35
2023-10-15T08:46:09.003Z,12.42
2023-10-15T08:46:23.185Z,12.45
2023-10-15T08:46:40.227Z,12.38
2023-10-15T08:46:55.409Z,12.40
2023-10-15T08:47:11.540Z,12.45
2023-10-15T08:47:26.517Z,12.45
2023-10-15T08:47:40.806Z,12.43
2023-10-15T08:47:55.512Z,12.35
2023-10-15T08:48:12.226Z,12.37
2023-10-15T08:48:26.003Z,12.33
2023-10-15T08:48:43.486Z,12.37
2023-10-15T08:48:57.196Z,12.38
2023-10-15T08:49:09.852Z,12.45
2023-10-15T08:49:28.998Z,12.38
2023-10-15T08:49:50.697Z,12.34
2023-10-15T08:50:04.362Z,12.39
2023-10-15T08:50:18.079Z,12.35
2023-10-15T08:50:31.983Z,12.33
2023-10-15T08:50:48.929Z,12.35
2023-10-15T08:51:03.389Z,12.36
2023-10-15T08:51:17.922Z,12.30
2023-10-15T08:51:30.960Z,12.37
2023-10-15T08:51:44.896Z,12.43
2023-10-15T08:52:03.314Z,12.39
2023-10-15T08:52:19.363Z,12.45
2023-10-15T08:52:33.132Z,12.38
2023-10-15T08:52:49.643Z,12.37
2023-10-15T08:53:02.494Z,12.39
2023-10-15T08:53:15.564Z,12.39
2023-10-15T08:53:29.612Z,12.46
2023-10-15T08:53:44.280Z,12.42
2023-10-15T08:54:00.662Z,12.38
2023-10-15T08:54:15.319Z,12.45
2023-10-15T08:54:29.363Z,12.46
2023-10-15T08:54:50.048Z,12.47
2023-10-15T08:55:02.660Z,12.49
2023-10-15T08:55:15.954Z,12.38
2023-10-15T08:55:28.861Z,12.41
2023-10-15T08:55:43.347Z,12.39
2023-10-15T08:55:56.423Z,12.47
2023-10-15T08:56:10.958Z,12.41
2023-10-15T08:56:23.527Z,12.41
2023-10-15T08:56:39.723Z,12.48
2023-10-15T08:56:53.967Z,12.49
2023-10-15T08:57:07.871Z,12.43
2023-10-15T08:57:20.969Z,12.45
2023-10-15T08:57:33.043Z,12.44
2023-10-15T08:57:46.574Z,12.44
2023-10-15T08:58:04.981Z,12.46
2023-10-15T08:58:21.790Z,12.47
2023-10-15T08:58:35.938Z,12.45
2023-10-15T08:58:51.693Z,12.51
2023-10-15T08:59:04.366Z,12.56
2023-10-15T08:59:17.634Z,12.45
2023-10-15T08:59:31.738Z,12.52
2023-10-15T08:59:45.144Z,12.56
2023-10-15T08:59:59.550Z,12.58
2023-10-15T09:00:24.778Z,12.55
2023-10-15T09:00:43.549Z,12.64
2023-10-15T09:00:56.660Z,12.64
2023-10-15T09:01:10.654Z,12.51
2023-10-15T09:01:24.236Z,12.59
2023-10-15T09:01:38.634Z,12.55
2023-10-15T09:01:52.679Z,12.60
2023-10-15T09:02:06.678Z,12.60
2023-10-15T09:02:21.421Z,12.60
2023-10-15T09:02:34.894Z,12.56
2023-10-15T09:02:48.422Z,12.56
2023-10-15T09:03:05.627Z,12.53
2023-10-15T09:03:20.058Z,12.59
2023-10-15T09:03:32.809Z,12.55
2023-10-15T09:03:45.825Z,12.57
2023-10-15T09:03:59.934Z,12.53
2023-10-15T09:04:13.812Z,12.51
2023-10-15T09:04:26.592Z,12.57
2023-10-15T09:04:38.828Z,12.60
2023-10-15T09:04:51.355Z,12.51
2023-10-15T09:05:04.144Z,12.63
2023-10-15T09:05:16.664Z,12.62
2023-10-15T09:05:29.701Z,12.64
2023-10-15T09:05:42.364Z,12.62
2023-10-15T09:05:56.033Z,12.56
2023-10-15T09:06:08.714Z,12.61
2023-10-15T09:06:21.459Z,12.63
2023-10-15T09:06:35.232Z,12.59
2023-10-15T09:06:48.804Z,12.60
2023-10-15T09:07:01.837Z,12.55
2023-10-15T09:07:15.183Z,12.50
2023-10-15T09:07:28.226Z,12.51
2023-10-15T09:07:40.740Z,12.51
2023-10-15T09:07:54.966Z,12.52
2023-10-15T09:08:09.082Z,12.60
2023-10-15T09:08:22.304Z,12.54
2023-10-15T09:08:34.740Z,12.56
2023-10-15T09:08:47.452Z,12.52
2023-10-15T09:08:59.711Z,12.54
2023-10-15T09:09:11.797Z,12.58
2023-10-15T09:09:23.841Z,12.52
2023-10-15T09:09:36.179Z,12.55
2023-10-15T09:09:49.725Z,12.58
2023-10-15T09:10:02.317Z,12.52
2023-10-15T09:10:15.944Z,12.55
2023-10-15T09:10:28.216Z,12.57
2023-10-15T09:10:41.931Z,12.53
2023-10-15T09:10:55.406Z,12.55
2023-10-15T09:11:07.707Z,12.59
2023-10-15T09:11:19.959Z,12.54
2023-10-15T09:11:32.173Z,12.53
2023-10-15T09:11:45.017Z,12.55
2023-10-15T09:11:58.295Z,12.53
2023-10-15T09:12:12.015Z,12.55
2023-10-15T09:12:24.342Z,12.56
2023-10-15T09:12:36.770Z,12.58
2023-10-15T09:12:49.170Z,12.54
2023-10-15T09:13:01.314Z,12.60
2023-10-15T09:13:14.464Z,12.59
2023-10-15T09:13:26.718Z,12.53
2023-10-15T09:13:39.252Z,12.59
2023-10-15T09:13:52.646Z,12.59
2023-10-15T09:14:05.128Z,12.56
2023-10-15T09:14:17.527Z,12.52
2023-10-15T09:14:39.586Z,12.57
2023-10-15T09:14:52.296Z,12.59
2023-10-15T09:15:09.215Z,12.62
2023-10-15T09:15:21.465Z,12.50
2023-10-15T09:15:40.149Z,12.63
2023-10-15T09:15:54.165Z,12.57
2023-10-15T09:16:07.904Z,12.64
2023-10-15T09:16:22.400Z,12.58
2023-10-15T09:16:36.578Z,12.57
2023-10-15T09:16:49.329Z,12.62
2023-10-15T09:17:01.781Z,12.61
2023-10-15T09:17:16.409Z,12.61
2023-10-15T09:17:29.155Z,12.51
2023-10-15T09:17:41.856Z,12.61
2023-10-15T09:17:56.930Z,12.55
2023-10-15T09:18:09.431Z,12.62
2023-10-15T09:18:22.188Z,12.59
2023-10-15T09:18:35.591Z,12.59
2023-10-15T09:18:48.728Z,12.58
2023-10-15T09:19:01.607Z,12.60
2023-10-15T09:19:13.994Z,12.53
2023-10-15T09:19:26.873Z,12.58
2023-10-15T09:19:40.397Z,12.53
2023-10-15T09:19:57.344Z,12.55
2023-10-15T09:20:14.300Z,12.56
2023-10-15T09:20:28.880Z,12.57
2023-10-15T09:20:43.957Z,12.58
2023-10-15T09:20:59.253Z,12.49
2023-10-15T09:21:12.104Z,12.57
2023-10-15T09:21:25.809Z,12.53
2023-10-15T09:21:38.560Z,12.52
2023-10-15T09:21:50.591Z,12.57
2023-10-15T09:22:02.805Z,12.58
2023-10-15T09:22:15.861Z,12.58
2023-10-15T09:22:30.375Z,12.57
2023-10-15T09:22:46.253Z,12.56
2023-10-15T09:23:09.314Z,12.50
2023-10-15T09:23:33.869Z,12.53
2023-10-15T09:23:47.007Z,12.48
2023-10-15T09:24:00.341Z,12.58
2023-10-15T09:24:13.272Z,12.55
2023-10-15T09:24:27.879Z,12.59
2023-10-15T09:24:47.156Z,12.59
2023-10-15T09:25:00.424Z,12.52
2023-10-15T09:25:13.325Z,12.56
2023-10-15T09:25:33.578Z,12.59
2023-10-15T09:25:46.680Z,12.52
2023-10-15T09:25:59.343Z,12.64
2023-10-15T09:26:25.860Z,12.60
2023-10-15T09:26:39.562Z,12.62
2023-10-15T09:26:51.429Z,12.62
2023-10-15T09:27:03.579Z,12.64
2023-10-15T09:27:15.670Z,12.64
2023-10-15T09:27:27.644Z,12.63
2023-10-15T09:27:46.958Z,12.63
2023-10-15T09:28:02.205Z,12.62
2023-10-15T09:28:14.507Z,12.64
2023-10-15T09:28:26.658Z,12.63
2023-10-15T09:28:38.850Z,12.63
2023-10-15T09:28:50.698Z,12.65
2023-10-15T09:29:02.860Z,12.66
2023-10-15T09:29:21.206Z,12.66
2023-10-15T09:29:33.430Z,12.67
2023-10-15T09:29:45.590Z,12.67
2023-10-15T09:30:06.761Z,12.65
2023-10-15T09:30:22.382Z,12.67
2023-10-15T09:30:34.235Z,12.67
2023-10-15T09:30:46.197Z,12.69
2023-10-15T09:31:04.808Z,12.68
2023-10-15T09:31:16.820Z,12.69
2023-10-15T09:31:28.775Z,12.70
2023-10-15T09:31:40.838Z,12.70
2023-10-15T09:31:52.797Z,12.72
2023-10-15T09:32:05.481Z,12.72
2023-10-15T09:32:17.432Z,12.73
2023-10-15T09:32:32.644Z,12.74
2023-10-15T09:32:44.769Z,12.74
2023-10-15T09:32:57.039Z,12.76
2023-10-15T09:33:09.002Z,12.77
2023-10-15T09:33:28.502Z,12.77
2023-10-15T09:33:41.208Z,12.79
2023-10-15T09:33:53.053Z,12.80
2023-10-15T09:34:05.345Z,12.80
2023-10-15T09:34:17.689Z,12.81
2023-10-15T09:34:30.276Z,12.82
2023-10-15T09:34:42.325Z,12.83
2023-10-15T09:34:54.533Z,12.81
2023-10-15T09:35:06.735Z,12.82
2023-10-15T09:35:18.982Z,12.83
2023-10-15T09:35:31.170Z,12.83
2023-10-15T09:35:43.008Z,12.84
2023-10-15T09:35:54.874Z,12.84
2023-10-15T09:36:07.256Z,12.84
2023-10-15T09:36:21.209Z,12.85
2023-10-15T09:36:36.255Z,12.86
2023-10-15T09:36:48.043Z,12.87
2023-10-15T09:37:00.294Z,12.86
2023-10-15T09:37:12.269Z,12.87
2023-10-15T09:37:26.178Z,12.87
2023-10-15T09:37:38.229Z,12.87
2023-10-15T09:37:50.668Z,12.87
2023-10-15T09:38:04.553Z,12.87
2023-10-15T09:38:16.618Z,12.90
2023-10-15T09:38:28.610Z,12.90
2023-10-15T09:38:40.548Z,12.91
2023-10-15T09:38:52.465Z,12.91
2023-10-15T09:39:05.733Z,12.92
2023-10-15T09:39:17.709Z,12.93
2023-10-15T09:39:30.117Z,12.94
2023-10-15T09:39:42.041Z,12.94
2023-10-15T09:39:54.051Z,12.94
2023-10-15T09:40:07.315Z,12.95
2023-10-15T09:40:19.560Z,12.96
2023-10-15T09:40:31.498Z,12.96
2023-10-15T09:40:43.822Z,12.99
2023-10-15T09:40:55.888Z,12.98
2023-10-15T09:41:08.120Z,12.98
2023-10-15T09:41:20.501Z,13.00
2023-10-15T09:41:32.524Z,13.00
2023-10-15T09:41:45.632Z,13.01
2023-10-15T09:41:58.199Z,13.01
2023-10-15T09:42:10.276Z,13.03
2023-10-15T09:42:22.857Z,13.04
2023-10-15T09:42:39.446Z,13.05
2023-10-15T09:42:52.352Z,13.06
2023-10-15T09:43:04.674Z,13.07
2023-10-15T09:43:17.466Z,13.08
2023-10-15T09:43:30.499Z,13.09
2023-10-15T09:43:44.489Z,13.11
2023-10-15T09:43:58.087Z,13.10
2023-10-15T09:44:10.928Z,13.14
2023-10-15T09:44:24.027Z,13.12
2023-10-15T09:44:36.540Z,13.14
2023-10-15T09:44:49.353Z,13.13
2023-10-15T09:45:06.030Z,13.14
2023-10-15T09:45:18.090Z,13.14
2023-10-15T09:45:30.308Z,13.14
2023-10-15T09:45:43.143Z,13.14
2023-10-15T09:45:55.654Z,13.13
2023-10-15T09:46:08.605Z,13.12
2023-10-15T09:46:22.038Z,13.12
2023-10-15T09:46:34.129Z,13.16
2023-10-15T09:46:46.586Z,13.15
2023-10-15T09:46:59.084Z,13.16
2023-10-15T09:47:11.653Z,13.16
2023-10-15T09:47:23.915Z,13.12
2023-10-15T09:47:36.804Z,13.11
2023-10-15T09:47:50.252Z,13.12
2023-10-15T09:48:03.374Z,13.15
2023-10-15T09:48:15.853Z,13.14
2023-10-15T09:48:28.420Z,13.15
2023-10-15T09:48:42.237Z,13.13
2023-10-15T09:48:54.685Z,13.13
2023-10-15T09:49:07.006Z,13.10
2023-10-15T09:49:19.960Z,13.13
2023-10-15T09:49:32.508Z,13.09
2023-10-15T09:49:45.354Z,13.10
2023-10-15T09:49:58.542Z,13.11
2023-10-15T09:50:11.511Z,13.11
2023-10-15T09:50:23.451Z,13.10
2023-10-15T09:50:37.579Z,13.13
2023-10-15T09:50:50.852Z,13.15
2023-10-15T09:51:03.054Z,13.17
2023-10-15T09:51:15.265Z,13.17
2023-10-15T09:51:28.035Z,13.16
2023-10-15T09:51:41.202Z,13.19
2023-10-15T09:51:53.352Z,13.21
2023-10-15T09:52:07.147Z,13.22
2023-10-15T09:52:19.669Z,13.24
2023-10-15T09:52:32.125Z,13.25
2023-10-15T09:52:46.398Z,13.26
2023-10-15T09:52:59.764Z,13.27
2023-10-15T09:53:14.454Z,13.29
2023-10-15T09:53:27.451Z,13.31
2023-10-15T09:53:40.727Z,13.31
2023-10-15T09:53:54.732Z,13.32
2023-10-15T09:54:07.992Z,13.33
2023-10-15T09:54:21.358Z,13.34
2023-10-15T09:54:34.147Z,13.35
2023-10-15T09:54:49.724Z,13.36
2023-10-15T09:55:03.181Z,13.36
2023-10-15T09:55:15.491Z,13.37
2023-10-15T09:55:29.648Z,13.38
2023-10-15T09:55:42.304Z,13.39
2023-10-15T09:55:55.354Z,13.39
2023-10-15T09:56:09.915Z,13.37
2023-10-15T09:56:23.920Z,13.38
2023-10-15T09:56:38.634Z,13.40
2023-10-15T09:56:51.372Z,13.38
2023-10-15T09:57:03.736Z,13.37
2023-10-15T09:57:18.153Z,13.39
2023-10-15T09:57:31.048Z,13.40
2023-10-15T09:57:43.659Z,13.42
2023-10-15T09:57:56.961Z,13.40
2023-10-15T09:58:10.988Z,13.41
2023-10-15T09:58:22.908Z,13.41
2023-10-15T09:58:34.836Z,13.42
2023-10-15T09:58:46.923Z,13.42
2023-10-15T09:58:59.142Z,13.42
2023-10-15T09:59:11.161Z,13.42
2023-10-15T09:59:23.182Z,13.41
2023-10-15T09:59:34.967Z,13.40
2023-10-15T09:59:48.999Z,13.37
2023-10-15T10:00:01.019Z,13.39
2023-10-15T10:00:14.846Z,13.38
2023-10-15T10:00:29.631Z,13.35
2023-10-15T10:00:45.338Z,13.36
2023-10-15T10:01:01.894Z,13.35
2023-10-15T10:01:16.494Z,13.35
2023-10-15T10:01:30.033Z,13.32
2023-10-15T10:01:47.880Z,13.35
2023-10-15T10:02:02.229Z,13.34
2023-10-15T10:02:21.213Z,13.34
2023-10-15T10:02:44.357Z,13.36
2023-10-15T10:03:10.600Z,13.38
2023-10-15T10:03:52.216Z,13.33
2023-10-15T10:04:25.842Z,13.34
2023-10-15T10:04:57.725Z,13.33
2023-10-15T10:05:22.281Z,13.35
2023-10-15T10:05:44.421Z,13.35
2023-10-15T10:06:05.715Z,13.36
2023-10-15T10:06:29.669Z,13.37
2023-10-15T10:07:10.796Z,13.38
2023-10-15T10:07:44.536Z,13.41
2023-10-15T10:08:07.666Z,13.43
2023-10-15T10:08:35.573Z,13.43
2023-10-15T10:09:05.804Z,13.44
2023-10-15T10:09:34.657Z,13.44
2023-10-15T10:10:14.799Z,13.45
2023-10-15T10:10:46.836Z,13.45
2023-10-15T10:11:16.523Z,13.46
2023-10-15T10:11:43.734Z,13.45
2023-10-15T10:12:14.374Z,13.44
2023-10-15T10:12:36.978Z,13.43
2023-10-15T10:13:07.121Z,13.42
2023-10-15T10:13:42.999Z,13.42
2023-10-15T10:14:13.707Z,13.41
2023-10-15T10:14:45.481Z,13.40
2023-10-15T10:15:12.717Z,13.39
2023-10-15T10:15:41.152Z,13.34
2023-10-15T10:15:54.228Z,13.33
2023-10-15T10:16:15.523Z,13.33
2023-10-15T10:16:29.705Z,13.33
2023-10-15T10:16:42.290Z,13.29
2023-10-15T10:16:54.927Z,13.25
2023-10-15T10:17:09.827Z,13.25
2023-10-15T10:17:23.266Z,13.26
2023-10-15T10:17:38.121Z,13.23
2023-10-15T10:17:51.629Z,13.25
2023-10-15T10:18:04.961Z,13.25
2023-10-15T10:18:17.321Z,13.23
2023-10-15T10:18:32.186Z,13.25
2023-10-15T10:18:45.331Z,13.25
2023-10-15T10:18:57.646Z,13.25
2023-10-15T10:19:10.614Z,13.24
2023-10-15T10:19:23.054Z,13.24
2023-10-15T10:19:35.331Z,13.25
2023-10-15T10:19:49.945Z,13.24
2023-10-15T10:20:02.726Z,13.24
2023-10-15T10:20:15.017Z,13.24
2023-10-15T10:20:32.081Z,13.22
2023-10-15T10:20:45.790Z,13.22
2023-10-15T10:20:57.774Z,13.23
2023-10-15T10:21:10.101Z,13.22
2023-10-15T10:21:21.967Z,13.24
2023-10-15T10:21:33.927Z,13.23
2023-10-15T10:21:46.374Z,13.22
2023-10-15T10:21:58.369Z,13.20
2023-10-15T10:22:20.699Z,13.21
2023-10-15T10:22:32.826Z,13.22
2023-10-15T10:22:57.820Z,13.19
2023-10-15T10:23:11.415Z,13.21
2023-10-15T10:23:32.233Z,13.23
2023-10-15T10:23:51.477Z,13.22
2023-10-15T10:24:09.110Z,13.22
2023-10-15T10:24:20.936Z,13.22
2023-10-15T10:24:42.582Z,13.22
2023-10-15T10:24:54.691Z,13.22